Terminal Aerodrome Forecast
Issued by NWS Brownsville, TX

Home | Current Version | Previous Version | Text Only | Print | Product List | Glossary On
Versions: 1 2 3 4 5 6 7 8 9 10 11 12 13 14 15 16 17 18 19 20
000
FTUS44 KBRO 251724
TAFBRO
TAF
KBRO 251724Z 2518/2618 15017KT P6SM BKN035
     FM260300 15012KT P6SM BKN020
     FM261500 16015G25KT P6SM SCT020 BKN030=

USA.gov is the U.S. government's official web portal to all federal, state and local government web resources and services.